GLD1793 LPLA-LPGR

Flight info

Callsign GLD1793
Flight time 0h 27m
Altitude 4000
Route DCT IRDOP IRDO1A
Aircraft BE58/M-SDFGIRY/S

Departure

Time 2026-05-08 17:15
Airport Lajes Airport (LPLA)

Arrival

Time 2026-05-08 17:43
Airport Graciosa Airport (LPGR)
Time Latitude Longitude Altitude Speed Heading
2026-05-08 17:09 38.76430 -27.09031 172 ft 0 kts 226°
2026-05-08 17:12 38.76429 -27.09031 172 ft 1 kts 225°
2026-05-08 17:13 38.76424 -27.09036 172 ft 3 kts 207°
2026-05-08 17:13 38.76382 -27.09052 172 ft 9 kts 195°
2026-05-08 17:13 38.76307 -27.09067 172 ft 12 kts 186°
2026-05-08 17:13 38.76269 -27.09074 173 ft 0 kts 191°
2026-05-08 17:14 38.76239 -27.09091 173 ft 9 kts 233°
2026-05-08 17:14 38.76262 -27.09162 173 ft 13 kts 319°
2026-05-08 17:14 38.76493 -27.09402 206 ft 69 kts 323°
2026-05-08 17:15 38.76937 -27.09894 340 ft 101 kts 321°
2026-05-08 17:15 38.77456 -27.10573 837 ft 108 kts 314°
2026-05-08 17:15 38.77924 -27.11396 1263 ft 124 kts 311°
2026-05-08 17:15 38.78513 -27.12404 1274 ft 153 kts 311°
2026-05-08 17:16 38.79163 -27.13495 1528 ft 155 kts 311°
2026-05-08 17:16 38.79823 -27.14602 1768 ft 156 kts 311°
2026-05-08 17:16 38.80485 -27.15709 1985 ft 157 kts 312°
2026-05-08 17:16 38.81120 -27.16860 2193 ft 162 kts 300°
2026-05-08 17:17 38.81478 -27.18253 2385 ft 165 kts 298°
2026-05-08 17:17 38.81968 -27.19557 2608 ft 161 kts 304°
2026-05-08 17:17 38.82483 -27.20761 2804 ft 148 kts 306°
2026-05-08 17:17 38.82973 -27.21884 2995 ft 141 kts 307°
2026-05-08 17:18 38.83448 -27.22974 3194 ft 138 kts 307°
2026-05-08 17:18 38.83916 -27.24046 3388 ft 137 kts 307°
2026-05-08 17:18 38.84381 -27.25115 3584 ft 137 kts 306°
2026-05-08 17:18 38.84843 -27.26178 3785 ft 136 kts 306°
2026-05-08 17:19 38.85304 -27.27238 3984 ft 135 kts 307°
2026-05-08 17:19 38.85779 -27.28323 4020 ft 144 kts 306°
2026-05-08 17:19 38.86249 -27.29491 4029 ft 153 kts 295°
2026-05-08 17:19 38.86440 -27.30888 4032 ft 162 kts 285°
2026-05-08 17:20 38.86589 -27.32326 4031 ft 163 kts 286°
2026-05-08 17:20 38.86753 -27.33764 4032 ft 164 kts 286°
2026-05-08 17:20 38.86923 -27.35206 4031 ft 165 kts 286°
2026-05-08 17:20 38.87095 -27.36663 4037 ft 165 kts 286°
2026-05-08 17:21 38.87266 -27.38122 4037 ft 165 kts 286°
2026-05-08 17:21 38.87439 -27.39588 4032 ft 166 kts 286°
2026-05-08 17:21 38.87611 -27.41059 4032 ft 166 kts 287°
2026-05-08 17:21 38.87782 -27.42518 4031 ft 165 kts 286°
2026-05-08 17:22 38.87953 -27.43972 4031 ft 164 kts 287°
2026-05-08 17:22 38.88120 -27.45404 4030 ft 164 kts 287°
2026-05-08 17:22 38.88291 -27.46856 4032 ft 164 kts 286°
2026-05-08 17:22 38.88461 -27.48310 4027 ft 165 kts 286°
2026-05-08 17:23 38.88632 -27.49777 4028 ft 166 kts 286°
2026-05-08 17:23 38.88803 -27.51243 4028 ft 166 kts 286°
2026-05-08 17:23 38.88973 -27.52712 4029 ft 166 kts 286°
2026-05-08 17:23 38.89144 -27.54177 4029 ft 165 kts 287°
2026-05-08 17:24 38.89312 -27.55628 4027 ft 164 kts 287°
2026-05-08 17:24 38.89478 -27.57058 4027 ft 164 kts 287°
2026-05-08 17:24 38.89646 -27.58507 4027 ft 164 kts 286°
2026-05-08 17:24 38.89815 -27.59960 4033 ft 165 kts 286°
2026-05-08 17:25 38.89985 -27.61428 4031 ft 166 kts 286°
2026-05-08 17:25 38.90153 -27.62892 4032 ft 165 kts 286°
2026-05-08 17:25 38.90321 -27.64349 4032 ft 165 kts 286°
2026-05-08 17:25 38.90489 -27.65804 4030 ft 165 kts 286°
2026-05-08 17:26 38.90656 -27.67256 4030 ft 164 kts 286°
2026-05-08 17:26 38.90823 -27.68708 4030 ft 164 kts 286°
2026-05-08 17:26 38.90990 -27.70156 4030 ft 164 kts 286°
2026-05-08 17:26 38.91156 -27.71611 4033 ft 165 kts 286°
2026-05-08 17:27 38.91323 -27.73067 4035 ft 164 kts 286°
2026-05-08 17:27 38.91492 -27.74514 4035 ft 164 kts 287°
2026-05-08 17:27 38.91667 -27.75966 4035 ft 164 kts 287°
2026-05-08 17:27 38.91833 -27.77402 4034 ft 164 kts 286°
2026-05-08 17:28 38.91997 -27.78842 4035 ft 163 kts 286°
2026-05-08 17:28 38.92162 -27.80285 4036 ft 164 kts 285°
2026-05-08 17:28 38.92326 -27.81735 4036 ft 164 kts 286°
2026-05-08 17:28 38.92491 -27.83194 4037 ft 164 kts 285°
2026-05-08 17:29 38.92656 -27.84649 4046 ft 165 kts 285°
2026-05-08 17:29 38.92821 -27.86112 4043 ft 165 kts 286°
2026-05-08 17:29 38.92986 -27.87568 4043 ft 165 kts 286°
2026-05-08 17:29 38.93149 -27.89021 4042 ft 164 kts 286°
2026-05-08 17:30 38.93313 -27.90470 4042 ft 164 kts 286°
2026-05-08 17:30 38.93475 -27.91912 4042 ft 163 kts 286°
2026-05-08 17:30 38.93639 -27.93361 4045 ft 164 kts 286°
2026-05-08 17:30 38.93802 -27.94811 4045 ft 164 kts 286°
2026-05-08 17:31 38.93963 -27.96251 4056 ft 164 kts 286°
2026-05-08 17:31 38.94126 -27.97701 4056 ft 164 kts 286°
2026-05-08 17:31 38.94289 -27.99157 4055 ft 164 kts 287°
2026-05-08 17:31 38.94451 -28.00609 4053 ft 164 kts 287°
2026-05-08 17:32 38.94613 -28.02059 4055 ft 164 kts 286°
2026-05-08 17:32 38.94775 -28.03506 4055 ft 163 kts 286°
2026-05-08 17:32 38.94936 -28.04951 4055 ft 164 kts 286°
2026-05-08 17:32 38.95097 -28.06402 4054 ft 164 kts 286°
2026-05-08 17:33 38.95259 -28.07851 4052 ft 164 kts 286°
2026-05-08 17:33 38.95419 -28.09301 4047 ft 164 kts 286°
2026-05-08 17:33 38.95579 -28.10735 4046 ft 164 kts 287°
2026-05-08 17:33 38.95739 -28.12182 4047 ft 163 kts 287°
2026-05-08 17:34 38.95899 -28.13628 4046 ft 164 kts 286°
2026-05-08 17:34 38.96059 -28.15083 4047 ft 164 kts 286°
2026-05-08 17:34 38.96221 -28.16532 4048 ft 164 kts 286°
2026-05-08 17:34 38.96381 -28.17987 4046 ft 165 kts 285°
2026-05-08 17:35 38.96543 -28.19452 4046 ft 166 kts 285°
2026-05-08 17:35 38.96706 -28.20936 3964 ft 170 kts 285°
2026-05-08 17:35 38.96876 -28.22464 3822 ft 175 kts 285°
2026-05-08 17:35 38.97044 -28.24010 3672 ft 177 kts 285°
2026-05-08 17:36 38.97217 -28.25585 3524 ft 177 kts 285°
2026-05-08 17:36 38.97388 -28.27155 3375 ft 176 kts 285°
2026-05-08 17:36 38.97883 -28.28500 3218 ft 165 kts 321°
2026-05-08 17:36 38.98912 -28.28967 3071 ft 162 kts
2026-05-08 17:37 38.99992 -28.28481 2923 ft 165 kts 20°
2026-05-08 17:37 39.01043 -28.27928 2775 ft 164 kts 15°
2026-05-08 17:37 39.02127 -28.27462 2634 ft 164 kts 13°
2026-05-08 17:37 39.03212 -28.27032 2481 ft 163 kts 12°
2026-05-08 17:38 39.04288 -28.26561 2335 ft 166 kts 21°
2026-05-08 17:38 39.05158 -28.25537 2172 ft 177 kts 49°
2026-05-08 17:38 39.05589 -28.24012 2056 ft 183 kts 70°
2026-05-08 17:38 39.05846 -28.22433 2059 ft 177 kts 69°
2026-05-08 17:39 39.06108 -28.20913 2053 ft 176 kts 68°
2026-05-08 17:39 39.06375 -28.19382 2049 ft 174 kts 69°
2026-05-08 17:39 39.06636 -28.17869 2042 ft 173 kts 68°
2026-05-08 17:39 39.06897 -28.16360 2040 ft 171 kts 68°
2026-05-08 17:40 39.07164 -28.14835 1871 ft 180 kts 68°
2026-05-08 17:40 39.07438 -28.13254 1619 ft 174 kts 69°
2026-05-08 17:40 39.07679 -28.11814 1380 ft 154 kts 68°
2026-05-08 17:40 39.07899 -28.10538 1184 ft 135 kts 66°
2026-05-08 17:41 39.08089 -28.09429 1006 ft 121 kts 64°
2026-05-08 17:41 39.08272 -28.08407 843 ft 116 kts 64°
2026-05-08 17:41 39.08445 -28.07411 698 ft 112 kts 65°
2026-05-08 17:41 39.08612 -28.06459 539 ft 104 kts 62°
2026-05-08 17:42 39.08760 -28.05592 405 ft 96 kts 59°
2026-05-08 17:42 39.08893 -28.04766 249 ft 94 kts 65°
2026-05-08 17:42 39.09023 -28.03966 133 ft 91 kts 60°
2026-05-08 17:42 39.09170 -28.03177 96 ft 85 kts 64°
2026-05-08 17:43 39.09243 -28.02822 87 ft 7 kts 98°
2026-05-08 17:43 39.09218 -28.02829 86 ft 7 kts 209°
2026-05-08 17:43 39.09176 -28.02846 95 ft 7 kts 191°
2026-05-08 17:43 39.09137 -28.02868 97 ft 2 kts 101°
2026-05-08 17:44 39.09138 -28.02865 97 ft 0 kts 85°